createdAt,value
2022-12-19T00:01:37.749Z,38.73
2022-12-19T00:03:40.023Z,42.10
2022-12-19T00:05:42.594Z,38.20
2022-12-19T00:07:44.664Z,36.20
2022-12-19T00:09:46.664Z,32.70
2022-12-19T00:11:48.965Z,31.20
2022-12-19T00:13:51.418Z,37.17
2022-12-19T00:15:53.424Z,34.20
2022-12-19T00:17:55.559Z,41.07
2022-12-19T00:19:57.514Z,28.27
2022-12-19T00:21:59.515Z,30.13
2022-12-19T00:24:02.933Z,34.40
2022-12-19T00:26:20.158Z,35.47
2022-12-19T00:28:23.036Z,32.87
2022-12-19T00:30:25.266Z,37.90
2022-12-19T00:32:28.030Z,29.63
2022-12-19T00:34:30.030Z,33.13
2022-12-19T00:36:34.046Z,33.63
2022-12-19T00:38:36.057Z,34.83
2022-12-19T00:40:38.049Z,41.30
2022-12-19T00:42:42.425Z,35.03
2022-12-19T00:44:44.430Z,31.60
2022-12-19T00:46:50.252Z,34.70
2022-12-19T00:48:55.231Z,36.70
2022-12-19T00:51:06.771Z,27.90
2022-12-19T00:53:09.386Z,35.43
2022-12-19T00:55:12.714Z,35.03
2022-12-19T00:57:21.080Z,28.67
2022-12-19T00:59:26.332Z,35.33
2022-12-19T01:01:34.591Z,26.50
2022-12-19T01:03:36.701Z,35.37
2022-12-19T01:05:38.715Z,30.10
2022-12-19T01:07:44.069Z,28.70
2022-12-19T01:09:46.125Z,28.43
2022-12-19T01:12:08.523Z,33.10
2022-12-19T01:14:19.038Z,30.27
2022-12-19T01:16:23.380Z,35.60
2022-12-19T01:18:27.318Z,35.60
2022-12-19T01:20:30.098Z,31.13
2022-12-19T01:22:32.890Z,30.67
2022-12-19T01:24:34.891Z,22.63
2022-12-19T01:26:37.542Z,32.73
2022-12-19T01:28:39.873Z,30.13
2022-12-19T01:30:42.222Z,32.80
2022-12-19T01:32:45.316Z,24.37
2022-12-19T01:34:47.445Z,28.17
2022-12-19T01:36:49.564Z,29.50
2022-12-19T01:38:51.514Z,30.50
2022-12-19T01:40:56.297Z,27.13
2022-12-19T01:42:58.347Z,28.23
2022-12-19T01:45:12.120Z,29.83
2022-12-19T01:47:15.846Z,27.53
2022-12-19T01:49:35.501Z,26.80
2022-12-19T01:51:41.091Z,24.27
2022-12-19T01:53:49.291Z,25.90
2022-12-19T01:55:52.313Z,31.53
2022-12-19T01:57:55.450Z,26.90
2022-12-19T01:59:59.284Z,24.90
2022-12-19T02:02:34.147Z,24.03
2022-12-19T02:04:36.804Z,28.50
2022-12-19T02:06:39.624Z,25.43
2022-12-19T02:08:42.326Z,27.47
2022-12-19T02:10:44.351Z,25.17
2022-12-19T02:12:46.816Z,30.07
2022-12-19T02:14:49.146Z,27.50
2022-12-19T02:16:58.921Z,22.20
2022-12-19T02:19:19.317Z,31.50
2022-12-19T02:21:34.124Z,26.73
2022-12-19T02:24:13.618Z,24.30
2022-12-19T02:26:22.766Z,23.33
2022-12-19T02:28:25.220Z,21.53
2022-12-19T02:31:16.378Z,22.70
2022-12-19T02:33:37.711Z,27.20
2022-12-19T02:35:45.618Z,17.43
2022-12-19T02:37:56.203Z,21.33
2022-12-19T02:40:15.460Z,28.77
2022-12-19T02:42:25.289Z,20.70
2022-12-19T02:44:42.463Z,25.40
2022-12-19T02:46:46.151Z,24.23
2022-12-19T02:48:48.709Z,23.50
2022-12-19T02:50:51.473Z,32.00
2022-12-19T02:52:54.373Z,22.53
2022-12-19T02:54:59.419Z,23.07
2022-12-19T02:57:11.807Z,29.40
2022-12-19T02:59:18.216Z,28.53
2022-12-19T03:01:26.006Z,23.27
2022-12-19T03:03:39.179Z,24.40
2022-12-19T03:06:08.945Z,23.90
2022-12-19T03:08:29.094Z,21.87
2022-12-19T03:10:45.685Z,25.63
2022-12-19T03:12:50.033Z,31.73
2022-12-19T03:14:52.879Z,19.50
2022-12-19T03:16:55.192Z,21.20
2022-12-19T03:18:57.897Z,28.80
2022-12-19T03:21:05.181Z,29.40
2022-12-19T03:23:07.235Z,26.47
2022-12-19T03:25:09.359Z,22.57
2022-12-19T03:27:14.523Z,18.67
2022-12-19T03:29:39.207Z,21.03
2022-12-19T03:31:42.592Z,28.03
2022-12-19T03:33:45.518Z,24.03
2022-12-19T03:35:49.160Z,24.30
2022-12-19T03:37:52.846Z,23.90
2022-12-19T03:40:00.562Z,20.70
2022-12-19T03:42:22.101Z,17.50
2022-12-19T03:44:26.371Z,25.77
2022-12-19T03:46:28.857Z,27.03
2022-12-19T03:48:34.480Z,21.63
2022-12-19T03:50:53.500Z,18.67
2022-12-19T03:53:14.716Z,20.60
2022-12-19T03:55:26.839Z,21.77
2022-12-19T03:57:35.939Z,21.40
2022-12-19T03:59:48.999Z,19.00
2022-12-19T04:01:52.088Z,22.13
2022-12-19T04:03:55.872Z,21.73
2022-12-19T04:05:59.682Z,20.00
2022-12-19T04:08:06.357Z,21.50
2022-12-19T04:10:12.050Z,17.03
2022-12-19T04:12:18.119Z,21.50
2022-12-19T04:14:28.162Z,22.57
2022-12-19T04:16:37.293Z,19.67
2022-12-19T04:18:40.934Z,18.83
2022-12-19T04:20:45.977Z,20.50
2022-12-19T04:23:01.313Z,23.37
2022-12-19T04:25:05.765Z,18.57
2022-12-19T04:27:09.628Z,25.33
2022-12-19T04:29:12.278Z,17.60
2022-12-19T04:31:15.766Z,21.57
2022-12-19T04:33:17.936Z,21.53
2022-12-19T04:35:19.971Z,17.03
2022-12-19T04:37:21.955Z,19.67
2022-12-19T04:39:23.959Z,16.83
2022-12-19T04:41:26.845Z,18.73
2022-12-19T04:43:28.833Z,23.97
2022-12-19T04:45:30.846Z,23.63
2022-12-19T04:47:33.104Z,18.07
2022-12-19T04:49:35.086Z,20.50
2022-12-19T04:51:37.117Z,18.27
2022-12-19T04:53:39.149Z,20.17
2022-12-19T04:55:41.397Z,28.13
2022-12-19T04:57:43.365Z,18.43
2022-12-19T04:59:45.347Z,20.97
2022-12-19T05:01:47.426Z,20.07
2022-12-19T05:03:54.312Z,21.70
2022-12-19T05:06:11.038Z,19.23
2022-12-19T05:08:12.987Z,21.10
2022-12-19T05:10:15.632Z,23.00
2022-12-19T05:12:17.611Z,23.97
2022-12-19T05:14:19.644Z,25.40
2022-12-19T05:16:21.770Z,17.50
2022-12-19T05:18:24.204Z,23.57
2022-12-19T05:20:26.232Z,19.47
2022-12-19T05:22:28.359Z,19.73
2022-12-19T05:24:30.378Z,20.80
2022-12-19T05:26:32.628Z,21.93
2022-12-19T05:28:34.736Z,22.53
2022-12-19T05:30:36.759Z,20.73
2022-12-19T05:32:39.089Z,23.17
2022-12-19T05:34:41.090Z,23.43
2022-12-19T05:36:43.067Z,21.40
2022-12-19T05:38:45.124Z,20.97
2022-12-19T05:40:47.181Z,30.13
2022-12-19T05:42:49.208Z,20.40
2022-12-19T05:44:51.188Z,19.87
2022-12-19T05:46:53.185Z,20.03
2022-12-19T05:48:55.718Z,22.70
2022-12-19T05:50:58.501Z,19.63
2022-12-19T05:53:00.504Z,20.30
2022-12-19T05:55:02.529Z,20.97
2022-12-19T05:57:04.726Z,19.10
2022-12-19T05:59:06.835Z,16.87
2022-12-19T06:01:18.975Z,20.83
2022-12-19T06:03:21.094Z,23.40
2022-12-19T06:05:23.302Z,21.70
2022-12-19T06:07:25.452Z,21.83
2022-12-19T06:09:27.478Z,20.80
2022-12-19T06:11:29.610Z,23.60
2022-12-19T06:13:31.816Z,24.73
2022-12-19T06:15:33.848Z,23.03
2022-12-19T06:17:35.817Z,21.70
2022-12-19T06:19:37.902Z,22.60
2022-12-19T06:21:47.595Z,19.83
2022-12-19T06:23:50.634Z,21.90
2022-12-19T06:25:52.760Z,19.30
2022-12-19T06:27:54.828Z,18.90
2022-12-19T06:29:56.795Z,20.97
2022-12-19T06:31:58.897Z,20.57
2022-12-19T06:34:00.929Z,19.93
2022-12-19T06:36:06.112Z,17.80
2022-12-19T06:38:08.323Z,20.70
2022-12-19T06:40:30.635Z,22.43
2022-12-19T06:42:32.636Z,19.87
2022-12-19T06:44:34.798Z,24.90
2022-12-19T06:46:37.311Z,27.10
2022-12-19T06:48:39.350Z,19.77
2022-12-19T06:50:41.336Z,17.73
2022-12-19T06:52:43.324Z,23.47
2022-12-19T06:54:45.658Z,25.03
2022-12-19T06:56:47.626Z,20.60
2022-12-19T06:58:49.903Z,22.73
2022-12-19T07:00:53.132Z,25.40
2022-12-19T07:02:55.867Z,18.27
2022-12-19T07:05:01.574Z,20.03
2022-12-19T07:07:04.589Z,23.60
2022-12-19T07:09:06.694Z,23.90
2022-12-19T07:11:08.671Z,22.03
2022-12-19T07:13:10.662Z,18.53
2022-12-19T07:15:12.714Z,24.57
2022-12-19T07:17:14.778Z,24.27
2022-12-19T07:19:16.884Z,19.93
2022-12-19T07:21:19.037Z,24.60
2022-12-19T07:23:22.000Z,22.17
2022-12-19T07:25:24.060Z,22.97
2022-12-19T07:27:35.192Z,24.57
2022-12-19T07:29:37.571Z,21.70
2022-12-19T07:31:39.582Z,20.97
2022-12-19T07:33:41.638Z,21.40
2022-12-19T07:35:43.660Z,18.83
2022-12-19T07:37:45.616Z,20.60
2022-12-19T07:39:50.357Z,21.33
2022-12-19T07:41:52.315Z,21.27
2022-12-19T07:44:06.265Z,26.90
2022-12-19T07:46:08.302Z,21.03
2022-12-19T07:48:10.393Z,21.37
2022-12-19T07:50:12.307Z,22.53
2022-12-19T07:52:14.311Z,21.40
2022-12-19T07:54:16.469Z,23.20
2022-12-19T07:56:18.398Z,21.00
2022-12-19T07:58:21.009Z,24.03
2022-12-19T08:00:23.425Z,23.23
2022-12-19T08:02:25.571Z,22.40
2022-12-19T08:04:27.871Z,22.50
2022-12-19T08:06:30.014Z,22.83
2022-12-19T08:08:32.343Z,22.10
2022-12-19T08:10:34.352Z,23.83
2022-12-19T08:12:36.371Z,21.83
2022-12-19T08:14:38.382Z,24.23
2022-12-19T08:17:10.918Z,19.80
2022-12-19T08:19:03.193Z,23.50
2022-12-19T08:21:05.459Z,24.93
2022-12-19T08:23:07.441Z,26.27
2022-12-19T08:25:09.652Z,25.60
2022-12-19T08:27:12.940Z,35.30
2022-12-19T08:29:15.017Z,24.87
2022-12-19T08:31:18.083Z,21.33
2022-12-19T08:33:20.095Z,26.57
2022-12-19T08:35:22.949Z,25.03
2022-12-19T08:37:24.971Z,23.40
2022-12-19T08:39:26.937Z,27.67
2022-12-19T08:41:28.946Z,19.67
2022-12-19T08:43:32.101Z,23.50
2022-12-19T08:45:34.159Z,23.50
2022-12-19T08:47:36.171Z,16.47
2022-12-19T08:49:38.225Z,22.07
2022-12-19T08:51:40.362Z,23.33
2022-12-19T08:53:43.884Z,29.17
2022-12-19T08:55:46.004Z,25.87
2022-12-19T08:57:48.331Z,29.53
2022-12-19T08:59:50.342Z,25.70
2022-12-19T09:01:53.406Z,22.93
2022-12-19T09:05:57.327Z,22.90
2022-12-19T09:06:20.798Z,25.27
2022-12-19T09:08:23.584Z,22.40
2022-12-19T09:10:25.607Z,26.00
2022-12-19T09:12:27.591Z,22.03
2022-12-19T09:14:33.910Z,24.53
2022-12-19T09:16:35.901Z,27.73
2022-12-19T09:18:39.852Z,25.73
2022-12-19T09:20:43.570Z,29.33
2022-12-19T09:22:45.576Z,19.80
2022-12-19T09:24:47.620Z,25.50
2022-12-19T09:26:49.628Z,27.53
2022-12-19T09:28:52.046Z,27.13
2022-12-19T09:31:02.648Z,23.20
2022-12-19T09:33:04.752Z,25.13
2022-12-19T09:35:07.306Z,23.40
2022-12-19T09:37:16.305Z,22.77
2022-12-19T09:39:19.376Z,32.93
2022-12-19T09:41:30.109Z,23.90
2022-12-19T09:43:53.337Z,26.93
2022-12-19T09:45:59.056Z,27.20
2022-12-19T09:48:02.059Z,25.77
2022-12-19T09:50:31.755Z,30.13
2022-12-19T09:52:37.434Z,24.77
2022-12-19T09:54:56.696Z,22.43
2022-12-19T09:57:01.641Z,31.43
2022-12-19T09:59:12.102Z,26.63
2022-12-19T10:01:22.807Z,30.60
2022-12-19T10:03:41.285Z,32.10
2022-12-19T10:07:10.959Z,31.17
2022-12-19T10:08:25.746Z,26.60
2022-12-19T10:12:38.034Z,30.33
2022-12-19T10:13:37.727Z,28.83
2022-12-19T10:15:58.970Z,30.53
2022-12-19T10:18:24.002Z,36.23
2022-12-19T10:20:38.654Z,27.63
2022-12-19T10:22:46.217Z,32.73
2022-12-19T10:25:21.913Z,26.63
2022-12-19T10:27:34.412Z,35.60
2022-12-19T10:29:39.104Z,30.67
2022-12-19T10:32:00.945Z,30.80
2022-12-19T10:34:24.433Z,27.43
2022-12-19T10:36:49.142Z,28.40
2022-12-19T10:38:57.164Z,39.00
2022-12-19T10:41:12.025Z,35.27
2022-12-19T10:43:30.607Z,26.47
2022-12-19T10:45:50.672Z,41.20
2022-12-19T10:47:57.347Z,32.53
2022-12-19T10:50:04.043Z,34.40
2022-12-19T10:52:12.210Z,30.93
2022-12-19T10:54:14.164Z,42.23
2022-12-19T10:56:30.338Z,39.80
2022-12-19T10:58:37.341Z,33.10
2022-12-19T11:00:47.070Z,41.07
2022-12-19T11:02:54.341Z,35.97
2022-12-19T11:04:56.720Z,33.87
2022-12-19T11:07:07.562Z,36.00
2022-12-19T11:09:29.504Z,36.77
2022-12-19T11:13:23.186Z,39.90
2022-12-19T11:17:32.302Z,34.90
2022-12-19T11:20:33.824Z,35.73
2022-12-19T11:26:11.624Z,32.63
2022-12-19T11:29:30.654Z,33.57
2022-12-19T11:29:33.187Z,38.43
2022-12-19T11:29:40.288Z,38.00
2022-12-19T11:30:48.175Z,29.83
2022-12-19T11:33:54.961Z,34.03
2022-12-19T11:35:59.263Z,32.33
2022-12-19T11:38:06.149Z,37.80
2022-12-19T11:40:19.729Z,34.33
2022-12-19T11:42:29.873Z,42.60
2022-12-19T11:44:36.370Z,34.43
2022-12-19T11:46:45.585Z,35.83
2022-12-19T11:48:51.899Z,38.67
2022-12-19T11:51:04.889Z,30.37
2022-12-19T11:53:29.288Z,39.90
2022-12-19T11:55:53.289Z,35.10
2022-12-19T11:57:55.360Z,32.47
2022-12-19T12:00:01.385Z,31.97
2022-12-19T12:02:07.074Z,32.30
2022-12-19T12:04:37.055Z,39.60
2022-12-19T12:06:49.120Z,35.40
2022-12-19T12:13:43.522Z,37.13
2022-12-19T12:21:05.491Z,38.53
2022-12-19T12:24:44.236Z,33.73
2022-12-19T12:28:07.235Z,36.53
2022-12-19T12:31:01.284Z,39.10
2022-12-19T12:31:40.922Z,45.67
2022-12-19T12:31:48.509Z,33.70
2022-12-19T12:31:51.875Z,32.17
2022-12-19T12:32:03.521Z,31.70
2022-12-19T12:35:56.941Z,40.50
2022-12-19T12:38:25.917Z,40.33
2022-12-19T12:40:51.080Z,32.50
2022-12-19T12:42:59.019Z,36.33
2022-12-19T12:45:17.161Z,41.43
2022-12-19T12:47:24.647Z,34.93
2022-12-19T12:49:29.491Z,37.80
2022-12-19T12:51:33.276Z,36.10
2022-12-19T12:53:41.224Z,33.93
2022-12-19T12:55:44.460Z,41.57
2022-12-19T12:57:46.472Z,34.03
2022-12-19T12:59:48.626Z,39.90
2022-12-19T13:01:56.174Z,42.63
2022-12-19T13:04:13.632Z,36.13
2022-12-19T13:06:37.542Z,41.20
2022-12-19T13:08:47.598Z,45.53
2022-12-19T13:10:58.202Z,38.40
2022-12-19T13:13:14.151Z,37.27
2022-12-19T13:15:29.789Z,38.13
2022-12-19T13:17:34.509Z,40.00
2022-12-19T13:19:38.558Z,39.73
2022-12-19T13:22:07.500Z,38.27
2022-12-19T13:24:16.487Z,32.13
2022-12-19T13:26:43.090Z,36.00
2022-12-19T13:28:45.750Z,37.17
2022-12-19T13:31:22.978Z,32.87
2022-12-19T13:33:45.882Z,37.93
2022-12-19T13:39:22.648Z,35.40
2022-12-19T13:39:51.970Z,36.70
2022-12-19T13:40:44.541Z,41.07
2022-12-19T13:43:19.073Z,38.10
2022-12-19T13:45:25.477Z,36.37
2022-12-19T13:47:32.226Z,43.03
2022-12-19T13:49:35.394Z,35.70
2022-12-19T13:51:57.729Z,36.07
2022-12-19T13:54:00.312Z,32.67
2022-12-19T13:56:24.182Z,34.03
2022-12-19T13:58:31.589Z,35.10
2022-12-19T14:00:41.815Z,34.10
2022-12-19T14:02:51.351Z,34.67
2022-12-19T14:04:53.574Z,36.20
2022-12-19T14:07:05.542Z,37.73
2022-12-19T14:11:28.345Z,35.37
2022-12-19T14:12:28.958Z,38.23
2022-12-19T14:14:36.094Z,40.27
2022-12-19T14:16:44.870Z,40.57
2022-12-19T14:18:49.240Z,37.60
2022-12-19T14:22:08.587Z,36.87
2022-12-19T14:23:43.785Z,35.13
2022-12-19T14:28:21.104Z,35.63
2022-12-19T14:28:29.088Z,36.47
2022-12-19T14:30:35.464Z,34.30
2022-12-19T14:33:47.101Z,39.23
2022-12-19T14:36:10.814Z,31.07
2022-12-19T14:39:22.228Z,31.83
2022-12-19T14:39:59.149Z,32.03
2022-12-19T14:43:55.874Z,41.13
2022-12-19T14:52:35.073Z,36.43
2022-12-19T14:53:17.409Z,32.47
2022-12-19T14:54:06.700Z,30.57
2022-12-19T14:54:28.662Z,32.77
2022-12-19T14:56:13.011Z,44.40
2022-12-19T14:58:52.379Z,33.60
2022-12-19T15:00:50.965Z,43.13
2022-12-19T15:02:56.690Z,35.07
2022-12-19T15:05:14.800Z,37.93
2022-12-19T15:07:22.102Z,28.87
2022-12-19T15:10:58.771Z,27.90
2022-12-19T15:14:20.750Z,40.57
2022-12-19T15:14:56.032Z,34.03
2022-12-19T15:17:21.420Z,32.17
2022-12-19T15:19:23.763Z,38.13
2022-12-19T15:21:26.659Z,29.97
2022-12-19T15:23:29.382Z,36.53
2022-12-19T15:26:02.068Z,34.33
2022-12-19T15:27:53.305Z,29.93
2022-12-19T15:29:55.486Z,30.63
2022-12-19T15:31:58.461Z,31.93
2022-12-19T15:34:33.641Z,33.07
2022-12-19T15:36:26.724Z,32.87
2022-12-19T15:38:28.779Z,34.03
2022-12-19T15:40:30.767Z,37.70
2022-12-19T15:42:32.834Z,47.73
2022-12-19T15:44:37.356Z,38.43
2022-12-19T15:46:44.738Z,38.50
2022-12-19T15:48:51.134Z,35.43
2022-12-19T15:50:53.210Z,32.90
2022-12-19T15:52:57.618Z,35.90
2022-12-19T15:54:59.806Z,36.53
2022-12-19T15:57:01.979Z,30.00
2022-12-19T15:59:05.375Z,32.67
2022-12-19T16:01:07.499Z,38.07
2022-12-19T16:03:28.668Z,38.73
2022-12-19T16:05:31.105Z,36.30
2022-12-19T16:07:33.170Z,36.27
2022-12-19T16:09:35.299Z,46.10
2022-12-19T16:11:38.242Z,36.43
2022-12-19T16:13:40.390Z,36.20
2022-12-19T16:15:42.430Z,45.40
2022-12-19T16:17:44.424Z,35.30
2022-12-19T16:19:46.413Z,38.57
2022-12-19T16:21:48.672Z,37.67
2022-12-19T16:23:51.459Z,40.80
2022-12-19T16:25:53.563Z,33.20
2022-12-19T16:27:57.544Z,39.37
2022-12-19T16:30:07.208Z,38.23
2022-12-19T16:32:13.091Z,38.33
2022-12-19T16:34:17.292Z,33.93
2022-12-19T16:36:19.841Z,35.00
2022-12-19T16:38:22.450Z,38.47
2022-12-19T16:40:25.726Z,35.87
2022-12-19T16:42:29.578Z,38.10
2022-12-19T16:44:33.708Z,36.60
2022-12-19T16:46:35.903Z,38.80
2022-12-19T16:48:38.256Z,39.23
2022-12-19T16:50:40.432Z,40.73
2022-12-19T16:52:42.937Z,40.23
2022-12-19T16:54:45.023Z,37.10
2022-12-19T16:56:52.811Z,48.10
2022-12-19T16:58:56.083Z,38.80
2022-12-19T17:00:58.173Z,41.63
2022-12-19T17:03:08.696Z,34.33
2022-12-19T17:05:26.209Z,41.13
2022-12-19T17:07:28.900Z,40.13
2022-12-19T17:09:30.872Z,50.93
2022-12-19T17:11:33.066Z,39.57
2022-12-19T17:13:35.146Z,44.73
2022-12-19T17:15:38.856Z,49.43
2022-12-19T17:17:40.871Z,46.87
2022-12-19T17:19:45.156Z,38.30
2022-12-19T17:21:48.145Z,38.10
2022-12-19T17:23:50.740Z,42.33
2022-12-19T17:25:54.856Z,46.03
2022-12-19T17:27:56.925Z,49.30
2022-12-19T17:29:58.910Z,45.90
2022-12-19T17:32:01.047Z,37.73
2022-12-19T17:34:03.883Z,46.50
2022-12-19T17:36:07.475Z,33.00
2022-12-19T17:38:13.277Z,40.93
2022-12-19T17:40:20.404Z,47.23
2022-12-19T17:42:23.800Z,48.67
2022-12-19T17:44:25.787Z,47.23
2022-12-19T17:46:28.669Z,40.90
2022-12-19T17:48:31.903Z,36.30
2022-12-19T17:50:39.800Z,52.33
2022-12-19T17:52:41.810Z,50.10
2022-12-19T17:54:44.013Z,49.03
2022-12-19T17:56:46.061Z,42.67
2022-12-19T17:58:49.198Z,45.63
2022-12-19T18:00:51.594Z,47.80
2022-12-19T18:02:55.616Z,43.17
2022-12-19T18:04:58.458Z,66.90
2022-12-19T18:07:01.391Z,42.00
2022-12-19T18:09:03.838Z,56.57
2022-12-19T18:11:10.418Z,43.40
2022-12-19T18:13:12.405Z,42.40
2022-12-19T18:15:16.316Z,48.80
2022-12-19T18:17:25.653Z,48.50
2022-12-19T18:19:30.541Z,45.73
2022-12-19T18:21:32.614Z,45.17
2022-12-19T18:23:34.703Z,40.03
2022-12-19T18:25:36.703Z,51.93
2022-12-19T18:27:38.658Z,37.97
2022-12-19T18:29:42.050Z,49.00
2022-12-19T18:31:50.357Z,52.83
2022-12-19T18:33:54.484Z,37.20
2022-12-19T18:35:56.509Z,41.23
2022-12-19T18:38:00.881Z,43.87
2022-12-19T18:40:20.070Z,57.00
2022-12-19T18:42:24.204Z,54.20
2022-12-19T18:44:26.361Z,50.00
2022-12-19T18:46:28.616Z,50.80
2022-12-19T18:48:37.521Z,48.63
2022-12-19T18:50:40.148Z,43.00
2022-12-19T18:52:42.181Z,44.47
2022-12-19T18:54:44.176Z,42.87
2022-12-19T18:56:46.605Z,39.90
2022-12-19T18:58:48.725Z,40.57
2022-12-19T19:00:54.263Z,45.67
2022-12-19T19:03:06.619Z,37.30
2022-12-19T19:05:14.289Z,43.87
2022-12-19T19:07:16.360Z,36.03
2022-12-19T19:09:19.173Z,36.63
2022-12-19T19:11:47.139Z,48.33
2022-12-19T19:13:50.491Z,39.73
2022-12-19T19:15:57.459Z,41.17
2022-12-19T19:18:04.050Z,37.80
2022-12-19T19:20:06.840Z,41.57
2022-12-19T19:22:08.890Z,36.50
2022-12-19T19:24:14.105Z,37.97
2022-12-19T19:26:16.134Z,37.10
2022-12-19T19:28:18.203Z,49.87
2022-12-19T19:30:20.181Z,33.33
2022-12-19T19:32:22.308Z,38.97
2022-12-19T19:34:30.022Z,39.20
2022-12-19T19:36:35.947Z,42.17
2022-12-19T19:38:40.376Z,39.00
2022-12-19T19:40:42.369Z,34.70
2022-12-19T19:42:44.603Z,32.77
2022-12-19T19:44:46.574Z,34.10
2022-12-19T19:46:48.833Z,30.73
2022-12-19T19:48:50.984Z,38.83
2022-12-19T19:50:53.143Z,38.87
2022-12-19T19:52:56.115Z,38.97
2022-12-19T19:54:58.130Z,30.63
2022-12-19T19:57:00.157Z,32.63
2022-12-19T19:59:02.131Z,39.57
2022-12-19T20:01:10.888Z,36.70
2022-12-19T20:03:20.507Z,34.30
2022-12-19T20:05:24.928Z,30.90
2022-12-19T20:07:27.061Z,36.73
2022-12-19T20:09:29.130Z,37.57
2022-12-19T20:11:31.189Z,33.67
2022-12-19T20:13:33.300Z,29.70
2022-12-19T20:15:35.392Z,40.33
2022-12-19T20:17:38.181Z,30.30
2022-12-19T20:19:45.714Z,33.77
2022-12-19T20:21:47.767Z,32.27
2022-12-19T20:23:49.752Z,35.73
2022-12-19T20:25:51.880Z,30.50
2022-12-19T20:27:53.912Z,38.53
2022-12-19T20:29:56.680Z,40.50
2022-12-19T20:31:58.726Z,35.53
2022-12-19T20:34:00.707Z,33.90
2022-12-19T20:36:08.876Z,34.03
2022-12-19T20:38:10.894Z,36.43
2022-12-19T20:40:13.065Z,35.07
2022-12-19T20:42:15.109Z,37.70
2022-12-19T20:44:23.905Z,36.83
2022-12-19T20:46:26.569Z,33.40
2022-12-19T20:48:28.657Z,36.13
2022-12-19T20:50:30.778Z,36.57
2022-12-19T20:52:32.735Z,38.60
2022-12-19T20:54:34.696Z,34.93
2022-12-19T20:56:36.685Z,38.87
2022-12-19T20:58:38.831Z,32.60
2022-12-19T21:00:40.870Z,29.10
2022-12-19T21:03:17.290Z,37.13
2022-12-19T21:05:06.020Z,31.00
2022-12-19T21:07:08.308Z,37.30
2022-12-19T21:09:11.259Z,31.00
2022-12-19T21:11:13.833Z,28.63
2022-12-19T21:13:16.049Z,27.80
2022-12-19T21:15:18.081Z,26.10
2022-12-19T21:17:20.080Z,28.67
2022-12-19T21:19:22.043Z,28.97
2022-12-19T21:21:27.286Z,26.33
2022-12-19T21:23:29.298Z,27.90
2022-12-19T21:25:31.369Z,21.60
2022-12-19T21:27:34.005Z,23.80
2022-12-19T21:29:36.008Z,24.43
2022-12-19T21:31:38.053Z,26.90
2022-12-19T21:33:40.296Z,26.57
2022-12-19T21:35:42.298Z,21.00
2022-12-19T21:37:50.048Z,24.97
2022-12-19T21:39:52.157Z,22.00
2022-12-19T21:41:54.177Z,24.47
2022-12-19T21:43:56.468Z,21.97
2022-12-19T21:46:09.915Z,21.17
2022-12-19T21:48:11.966Z,23.73
2022-12-19T21:50:15.464Z,23.43
2022-12-19T21:52:17.481Z,23.80
2022-12-19T21:54:19.433Z,23.90
2022-12-19T21:56:25.597Z,21.97
2022-12-19T21:58:27.563Z,24.33
2022-12-19T22:00:29.617Z,19.80
2022-12-19T22:02:31.715Z,23.90
2022-12-19T22:04:33.861Z,29.80
2022-12-19T22:06:37.376Z,24.40
2022-12-19T22:08:40.269Z,26.70
2022-12-19T22:10:42.490Z,21.83
2022-12-19T22:12:44.512Z,24.50
2022-12-19T22:14:46.791Z,20.50
2022-12-19T22:16:49.183Z,25.67
2022-12-19T22:18:52.856Z,23.23
2022-12-19T22:20:58.916Z,18.63
2022-12-19T22:23:00.841Z,20.53
2022-12-19T22:25:03.233Z,20.33
2022-12-19T22:27:05.337Z,23.60
2022-12-19T22:29:09.361Z,18.60
2022-12-19T22:31:29.130Z,22.07
2022-12-19T22:33:31.221Z,22.20
2022-12-19T22:35:34.546Z,20.07
2022-12-19T22:37:36.664Z,19.73
2022-12-19T22:39:38.719Z,22.60
2022-12-19T22:41:41.276Z,20.17
2022-12-19T22:43:43.523Z,21.53
2022-12-19T22:45:45.650Z,22.40
2022-12-19T22:47:47.819Z,17.57
2022-12-19T22:49:53.020Z,21.07
2022-12-19T22:51:55.027Z,23.27
2022-12-19T22:53:57.219Z,21.50
2022-12-19T22:56:06.205Z,22.77
2022-12-19T22:58:08.866Z,19.57
2022-12-19T23:00:14.282Z,19.47
2022-12-19T23:02:16.601Z,17.40
2022-12-19T23:04:19.045Z,21.40
2022-12-19T23:06:22.139Z,19.77
2022-12-19T23:08:24.092Z,20.20
2022-12-19T23:10:26.098Z,23.80
2022-12-19T23:12:28.156Z,21.67
2022-12-19T23:14:30.188Z,21.80
2022-12-19T23:16:32.378Z,17.17
2022-12-19T23:18:34.588Z,18.80
2022-12-19T23:20:36.562Z,23.70
2022-12-19T23:22:38.626Z,17.30
2022-12-19T23:24:41.095Z,23.57
2022-12-19T23:26:43.102Z,19.83
2022-12-19T23:28:51.024Z,20.43
2022-12-19T23:31:05.866Z,24.63
2022-12-19T23:33:07.857Z,19.43
2022-12-19T23:35:10.312Z,22.60
2022-12-19T23:37:12.865Z,30.50
2022-12-19T23:39:15.102Z,20.63
2022-12-19T23:41:17.212Z,18.50
2022-12-19T23:43:19.437Z,21.77
2022-12-19T23:45:21.811Z,26.60
2022-12-19T23:47:23.857Z,22.77
2022-12-19T23:49:25.859Z,22.93
2022-12-19T23:51:28.374Z,25.57
2022-12-19T23:53:31.175Z,19.93
2022-12-19T23:55:33.275Z,23.27
2022-12-19T23:57:35.232Z,21.23
2022-12-19T23:59:37.206Z,22.83
